Fowler, New York
Current Conditions -  °F | °C
As of 9:58 PM on Monday 26 Jan 2015 (Local Time) from KGTB Reporting Station
Overcast Overcast  
Wind Chill: -10°   Ceiling: 10000
Heat Index:   Visibility: 10mi
Dew Point: -5°   Wind: 10mph
Humidity: 65%   Direction: 50°NE
Pressure: 30"   Gusts: NA
Location:  44.3309°N, 75.4775°W
Report Text: KGTB 270258Z AUTO 05009KT 10SM FEW030 SCT036 OVC100 M15/M20 A3000 RMK AO2 CIG 050 RWY21 SLP178 T11521205 58005
Loading
Personal Weather Stations






























Interactive Weather Map New forecast layout! Learn more

10-Day Weather Forecast

Advertisements
Track Severe Weather on mobile